HBXWW EHTE-EHGG
Flight info
| Callsign | HBXWW |
|---|---|
| Flight time | 0h 39m |
| Altitude | 1200 |
| Route | ZWOLLE MEPPEL SMILDE EHGGR |
| Aircraft | H500/L-SDGY/S |
Departure
| Time | 2026-05-08 08:41 |
|---|---|
| Airport | Teuge Airport (EHTE) |
Arrival
| Time | 2026-05-08 09:21 |
|---|---|
| Airport | Groningen Airport Eelde (EHGG) |
| Time | Latitude | Longitude | Altitude | Speed | Heading |
|---|---|---|---|---|---|
| 2026-05-08 08:25 | 52.24176 | 6.05301 | 19 ft | 0 kts | 89° |
| 2026-05-08 08:37 | 52.24175 | 6.05299 | 25 ft | 1 kts | 76° |
| 2026-05-08 08:37 | 52.24175 | 6.05319 | 28 ft | 2 kts | 75° |
| 2026-05-08 08:37 | 52.24182 | 6.05343 | 24 ft | 1 kts | 355° |
| 2026-05-08 08:38 | 52.24184 | 6.05347 | 26 ft | 3 kts | 350° |
| 2026-05-08 08:38 | 52.24205 | 6.05305 | 24 ft | 11 kts | 259° |
| 2026-05-08 08:38 | 52.24200 | 6.05186 | 25 ft | 12 kts | 252° |
| 2026-05-08 08:38 | 52.24192 | 6.05025 | 29 ft | 15 kts | 253° |
| 2026-05-08 08:39 | 52.24186 | 6.04913 | 22 ft | 5 kts | 300° |
| 2026-05-08 08:39 | 52.24217 | 6.04898 | 25 ft | 2 kts | 348° |
| 2026-05-08 08:39 | 52.24239 | 6.04894 | 33 ft | 10 kts | 353° |
| 2026-05-08 08:39 | 52.24277 | 6.04898 | 28 ft | 1 kts | 85° |
| 2026-05-08 08:40 | 52.24276 | 6.04910 | 33 ft | 6 kts | 84° |
| 2026-05-08 08:40 | 52.24291 | 6.05194 | 41 ft | 40 kts | 83° |
| 2026-05-08 08:40 | 52.24311 | 6.05677 | 131 ft | 42 kts | 84° |
| 2026-05-08 08:40 | 52.24332 | 6.06181 | 222 ft | 46 kts | 82° |
| 2026-05-08 08:41 | 52.24376 | 6.06723 | 331 ft | 45 kts | 80° |
| 2026-05-08 08:41 | 52.24534 | 6.07119 | 448 ft | 46 kts | 36° |
| 2026-05-08 08:41 | 52.24771 | 6.07459 | 550 ft | 48 kts | 48° |
| 2026-05-08 08:41 | 52.25023 | 6.07882 | 649 ft | 55 kts | 49° |
| 2026-05-08 08:42 | 52.25300 | 6.08346 | 678 ft | 57 kts | 40° |
| 2026-05-08 08:42 | 52.25581 | 6.08784 | 791 ft | 56 kts | 45° |
| 2026-05-08 08:42 | 52.25851 | 6.09191 | 867 ft | 51 kts | 45° |
| 2026-05-08 08:42 | 52.26086 | 6.09632 | 929 ft | 49 kts | 62° |
| 2026-05-08 08:43 | 52.26145 | 6.10165 | 1016 ft | 47 kts | 81° |
| 2026-05-08 08:43 | 52.26156 | 6.10686 | 1187 ft | 34 kts | 89° |
| 2026-05-08 08:43 | 52.26158 | 6.11188 | 1250 ft | 57 kts | 77° |
| 2026-05-08 08:43 | 52.26405 | 6.11760 | 1237 ft | 75 kts | 38° |
| 2026-05-08 08:44 | 52.26951 | 6.11960 | 1192 ft | 87 kts | 353° |
| 2026-05-08 08:44 | 52.27558 | 6.11756 | 1196 ft | 91 kts | 348° |
| 2026-05-08 08:44 | 52.28187 | 6.11473 | 1160 ft | 95 kts | 342° |
| 2026-05-08 08:44 | 52.28825 | 6.11128 | 1176 ft | 96 kts | 341° |
| 2026-05-08 08:45 | 52.29463 | 6.10806 | 1191 ft | 98 kts | 343° |
| 2026-05-08 08:45 | 52.30106 | 6.10527 | 1318 ft | 91 kts | 351° |
| 2026-05-08 08:45 | 52.30765 | 6.10323 | 1287 ft | 99 kts | 349° |
| 2026-05-08 08:45 | 52.31466 | 6.10128 | 1211 ft | 103 kts | 352° |
| 2026-05-08 08:46 | 52.32153 | 6.09968 | 1238 ft | 100 kts | 352° |
| 2026-05-08 08:46 | 52.32869 | 6.09796 | 1231 ft | 107 kts | 353° |
| 2026-05-08 08:46 | 52.33626 | 6.09658 | 1212 ft | 111 kts | 358° |
| 2026-05-08 08:46 | 52.34367 | 6.09792 | 1186 ft | 108 kts | 15° |
| 2026-05-08 08:47 | 52.35090 | 6.10121 | 1185 ft | 109 kts | 17° |
| 2026-05-08 08:47 | 52.35818 | 6.10416 | 1157 ft | 107 kts | 13° |
| 2026-05-08 08:47 | 52.36542 | 6.10681 | 1158 ft | 106 kts | 16° |
| 2026-05-08 08:47 | 52.37253 | 6.11019 | 1149 ft | 103 kts | 23° |
| 2026-05-08 08:48 | 52.37895 | 6.11488 | 1164 ft | 102 kts | 30° |
| 2026-05-08 08:48 | 52.38534 | 6.12026 | 1228 ft | 105 kts | 33° |
| 2026-05-08 08:48 | 52.39157 | 6.12664 | 1220 ft | 106 kts | 38° |
| 2026-05-08 08:48 | 52.39781 | 6.13337 | 1215 ft | 108 kts | 32° |
| 2026-05-08 08:49 | 52.40444 | 6.13864 | 1270 ft | 106 kts | 25° |
| 2026-05-08 08:49 | 52.41205 | 6.14028 | 1243 ft | 117 kts | 355° |
| 2026-05-08 08:49 | 52.41989 | 6.13612 | 1264 ft | 119 kts | 339° |
| 2026-05-08 08:49 | 52.42738 | 6.13101 | 1312 ft | 114 kts | 340° |
| 2026-05-08 08:50 | 52.43502 | 6.12765 | 1283 ft | 115 kts | 354° |
| 2026-05-08 08:50 | 52.44280 | 6.12797 | 1288 ft | 109 kts | 10° |
| 2026-05-08 08:50 | 52.45027 | 6.12986 | 1289 ft | 108 kts | 14° |
| 2026-05-08 08:50 | 52.45757 | 6.13284 | 1299 ft | 107 kts | 21° |
| 2026-05-08 08:51 | 52.46450 | 6.13731 | 1307 ft | 108 kts | 26° |
| 2026-05-08 08:51 | 52.47128 | 6.14250 | 1284 ft | 111 kts | 26° |
| 2026-05-08 08:51 | 52.47840 | 6.14722 | 1275 ft | 113 kts | 25° |
| 2026-05-08 08:51 | 52.48550 | 6.15267 | 1245 ft | 113 kts | 29° |
| 2026-05-08 08:52 | 52.49234 | 6.15860 | 1188 ft | 109 kts | 31° |
| 2026-05-08 08:52 | 52.49894 | 6.16459 | 1190 ft | 109 kts | 30° |
| 2026-05-08 08:52 | 52.50571 | 6.17004 | 1231 ft | 109 kts | 26° |
| 2026-05-08 08:52 | 52.51278 | 6.17474 | 1229 ft | 110 kts | 21° |
| 2026-05-08 08:53 | 52.52034 | 6.17807 | 1213 ft | 113 kts | 17° |
| 2026-05-08 08:53 | 52.52789 | 6.18194 | 1173 ft | 115 kts | 18° |
| 2026-05-08 08:53 | 52.53522 | 6.18454 | 1218 ft | 114 kts | 13° |
| 2026-05-08 08:53 | 52.54328 | 6.18605 | 1222 ft | 118 kts | 4° |
| 2026-05-08 08:54 | 52.55147 | 6.18532 | 1226 ft | 118 kts | 357° |
| 2026-05-08 08:54 | 52.55970 | 6.18481 | 1215 ft | 118 kts | 3° |
| 2026-05-08 08:54 | 52.56787 | 6.18617 | 1241 ft | 119 kts | 12° |
| 2026-05-08 08:54 | 52.57581 | 6.18970 | 1217 ft | 118 kts | 20° |
| 2026-05-08 08:55 | 52.58337 | 6.19404 | 1217 ft | 113 kts | 27° |
| 2026-05-08 08:55 | 52.59043 | 6.19966 | 1209 ft | 114 kts | 30° |
| 2026-05-08 08:55 | 52.59729 | 6.20568 | 1230 ft | 113 kts | 30° |
| 2026-05-08 08:55 | 52.60492 | 6.21001 | 1213 ft | 117 kts | 15° |
| 2026-05-08 08:56 | 52.61310 | 6.21091 | 1208 ft | 121 kts | 359° |
| 2026-05-08 08:56 | 52.62134 | 6.20817 | 1219 ft | 120 kts | 350° |
| 2026-05-08 08:56 | 52.62967 | 6.20555 | 1186 ft | 124 kts | 353° |
| 2026-05-08 08:56 | 52.63814 | 6.20316 | 1170 ft | 122 kts | 355° |
| 2026-05-08 08:57 | 52.64651 | 6.20177 | 1195 ft | 121 kts | 357° |
| 2026-05-08 08:57 | 52.65487 | 6.19983 | 1220 ft | 122 kts | 356° |
| 2026-05-08 08:57 | 52.66331 | 6.19889 | 1243 ft | 120 kts | 5° |
| 2026-05-08 08:57 | 52.67166 | 6.19997 | 1243 ft | 119 kts | 11° |
| 2026-05-08 08:58 | 52.67964 | 6.20260 | 1234 ft | 117 kts | 21° |
| 2026-05-08 08:58 | 52.68725 | 6.20704 | 1259 ft | 114 kts | 28° |
| 2026-05-08 08:58 | 52.69481 | 6.21162 | 1267 ft | 118 kts | 18° |
| 2026-05-08 08:58 | 52.70315 | 6.21187 | 1271 ft | 122 kts | 356° |
| 2026-05-08 08:59 | 52.71149 | 6.20920 | 1262 ft | 122 kts | 350° |
| 2026-05-08 08:59 | 52.71977 | 6.20645 | 1230 ft | 120 kts | 355° |
| 2026-05-08 08:59 | 52.72824 | 6.20493 | 1207 ft | 124 kts | 1° |
| 2026-05-08 08:59 | 52.73581 | 6.20683 | 1236 ft | 115 kts | 27° |
| 2026-05-08 09:00 | 52.74254 | 6.21330 | 1237 ft | 113 kts | 39° |
| 2026-05-08 09:00 | 52.74882 | 6.22115 | 1233 ft | 113 kts | 44° |
| 2026-05-08 09:00 | 52.75458 | 6.22976 | 1218 ft | 111 kts | 51° |
| 2026-05-08 09:00 | 52.75969 | 6.23903 | 1226 ft | 106 kts | 56° |
| 2026-05-08 09:01 | 52.76356 | 6.24912 | 1228 ft | 105 kts | 66° |
| 2026-05-08 09:01 | 52.76693 | 6.25970 | 1252 ft | 106 kts | 63° |
| 2026-05-08 09:01 | 52.77130 | 6.26955 | 1287 ft | 108 kts | 53° |
| 2026-05-08 09:01 | 52.77727 | 6.27744 | 1289 ft | 110 kts | 37° |
| 2026-05-08 09:02 | 52.78355 | 6.28459 | 1286 ft | 111 kts | 39° |
| 2026-05-08 09:02 | 52.79046 | 6.29079 | 1246 ft | 117 kts | 26° |
| 2026-05-08 09:02 | 52.79802 | 6.29531 | 1228 ft | 116 kts | 26° |
| 2026-05-08 09:02 | 52.80552 | 6.30025 | 1191 ft | 116 kts | 28° |
| 2026-05-08 09:03 | 52.81272 | 6.30633 | 1193 ft | 115 kts | 32° |
| 2026-05-08 09:03 | 52.81950 | 6.31312 | 1177 ft | 113 kts | 37° |
| 2026-05-08 09:03 | 52.82515 | 6.31959 | 1189 ft | 107 kts | 41° |
| 2026-05-08 09:03 | 52.83087 | 6.32749 | 1116 ft | 109 kts | 44° |
| 2026-05-08 09:04 | 52.83697 | 6.33438 | 1191 ft | 106 kts | 34° |
| 2026-05-08 09:04 | 52.84365 | 6.34005 | 1204 ft | 109 kts | 32° |
| 2026-05-08 09:04 | 52.84993 | 6.34609 | 1197 ft | 110 kts | 35° |
| 2026-05-08 09:04 | 52.85645 | 6.35251 | 1213 ft | 109 kts | 37° |
| 2026-05-08 09:05 | 52.86269 | 6.35940 | 1223 ft | 107 kts | 40° |
| 2026-05-08 09:05 | 52.86862 | 6.36711 | 1213 ft | 109 kts | 41° |
| 2026-05-08 09:05 | 52.87526 | 6.37339 | 1218 ft | 110 kts | 27° |
| 2026-05-08 09:05 | 52.88235 | 6.37868 | 1212 ft | 111 kts | 30° |
| 2026-05-08 09:06 | 52.88918 | 6.38476 | 1224 ft | 111 kts | 33° |
| 2026-05-08 09:06 | 52.89554 | 6.39176 | 1251 ft | 110 kts | 39° |
| 2026-05-08 09:06 | 52.90165 | 6.39932 | 1228 ft | 109 kts | 41° |
| 2026-05-08 09:06 | 52.90790 | 6.40663 | 1236 ft | 112 kts | 36° |
| 2026-05-08 09:07 | 52.91443 | 6.41380 | 1227 ft | 113 kts | 39° |
| 2026-05-08 09:07 | 52.92050 | 6.42172 | 1233 ft | 110 kts | 44° |
| 2026-05-08 09:07 | 52.92648 | 6.42914 | 1335 ft | 105 kts | 38° |
| 2026-05-08 09:07 | 52.93249 | 6.43576 | 1432 ft | 104 kts | 40° |
| 2026-05-08 09:08 | 52.93784 | 6.44384 | 1489 ft | 102 kts | 65° |
| 2026-05-08 09:08 | 52.93888 | 6.45523 | 1497 ft | 105 kts | 91° |
| 2026-05-08 09:08 | 52.93840 | 6.46733 | 1497 ft | 107 kts | 95° |
| 2026-05-08 09:08 | 52.93714 | 6.47938 | 1501 ft | 106 kts | 103° |
| 2026-05-08 09:09 | 52.93579 | 6.49137 | 1496 ft | 104 kts | 95° |
| 2026-05-08 09:09 | 52.93566 | 6.50312 | 1513 ft | 100 kts | 89° |
| 2026-05-08 09:09 | 52.93635 | 6.51474 | 1465 ft | 106 kts | 81° |
| 2026-05-08 09:09 | 52.93864 | 6.52622 | 1498 ft | 102 kts | 73° |
| 2026-05-08 09:10 | 52.94061 | 6.53519 | 1483 ft | 105 kts | 67° |
| 2026-05-08 09:10 | 52.94541 | 6.54414 | 1499 ft | 103 kts | 39° |
| 2026-05-08 09:10 | 52.95096 | 6.54994 | 1489 ft | 88 kts | 40° |
| 2026-05-08 09:10 | 52.95589 | 6.55530 | 1482 ft | 82 kts | 41° |
| 2026-05-08 09:11 | 52.96051 | 6.56089 | 1450 ft | 80 kts | 44° |
| 2026-05-08 09:11 | 52.96451 | 6.56639 | 1510 ft | 72 kts | 52° |
| 2026-05-08 09:11 | 52.96817 | 6.57231 | 1504 ft | 74 kts | 53° |
| 2026-05-08 09:11 | 52.97196 | 6.57829 | 1521 ft | 75 kts | 53° |
| 2026-05-08 09:12 | 52.97555 | 6.58464 | 1489 ft | 75 kts | 57° |
| 2026-05-08 09:12 | 52.97889 | 6.59118 | 1489 ft | 76 kts | 49° |
| 2026-05-08 09:12 | 52.98380 | 6.59463 | 1498 ft | 80 kts | 17° |
| 2026-05-08 09:12 | 52.98923 | 6.59599 | 1497 ft | 79 kts | 17° |
| 2026-05-08 09:13 | 52.99476 | 6.59738 | 1477 ft | 78 kts | 18° |
| 2026-05-08 09:13 | 52.99920 | 6.59883 | 1486 ft | 77 kts | 20° |
| 2026-05-08 09:13 | 53.00414 | 6.60095 | 1490 ft | 76 kts | 27° |
| 2026-05-08 09:13 | 53.00921 | 6.60389 | 1499 ft | 77 kts | 28° |
| 2026-05-08 09:14 | 53.01425 | 6.60680 | 1508 ft | 79 kts | 26° |
| 2026-05-08 09:14 | 53.01965 | 6.60888 | 1492 ft | 79 kts | 19° |
| 2026-05-08 09:14 | 53.02485 | 6.61118 | 1519 ft | 77 kts | 25° |
| 2026-05-08 09:14 | 53.03004 | 6.61376 | 1516 ft | 77 kts | 20° |
| 2026-05-08 09:15 | 53.03520 | 6.61617 | 1516 ft | 78 kts | 20° |
| 2026-05-08 09:15 | 53.04053 | 6.61830 | 1502 ft | 78 kts | 22° |
| 2026-05-08 09:15 | 53.04553 | 6.62136 | 1503 ft | 75 kts | 30° |
| 2026-05-08 09:15 | 53.05043 | 6.62435 | 1497 ft | 76 kts | 23° |
| 2026-05-08 09:16 | 53.05543 | 6.62660 | 1512 ft | 73 kts | 17° |
| 2026-05-08 09:16 | 53.06046 | 6.62849 | 1543 ft | 74 kts | 20° |
| 2026-05-08 09:16 | 53.06571 | 6.63016 | 1474 ft | 78 kts | 13° |
| 2026-05-08 09:16 | 53.07104 | 6.63121 | 1450 ft | 78 kts | 8° |
| 2026-05-08 09:17 | 53.07636 | 6.63109 | 1494 ft | 73 kts | 6° |
| 2026-05-08 09:17 | 53.08165 | 6.63044 | 1522 ft | 82 kts | 350° |
| 2026-05-08 09:17 | 53.08601 | 6.62414 | 1542 ft | 84 kts | 316° |
| 2026-05-08 09:17 | 53.09063 | 6.61855 | 1555 ft | 86 kts | 338° |
| 2026-05-08 09:18 | 53.09594 | 6.61384 | 1502 ft | 85 kts | 339° |
| 2026-05-08 09:18 | 53.09933 | 6.60573 | 1438 ft | 95 kts | 264° |
| 2026-05-08 09:18 | 53.09696 | 6.59604 | 1308 ft | 87 kts | 233° |
| 2026-05-08 09:18 | 53.09412 | 6.58772 | 1187 ft | 85 kts | 230° |
| 2026-05-08 09:19 | 53.09088 | 6.57969 | 1082 ft | 84 kts | 229° |
| 2026-05-08 09:19 | 53.08745 | 6.57184 | 1069 ft | 80 kts | 229° |
| 2026-05-08 09:19 | 53.08438 | 6.56425 | 1059 ft | 82 kts | 229° |
| 2026-05-08 09:19 | 53.08140 | 6.55622 | 1062 ft | 81 kts | 233° |
| 2026-05-08 09:20 | 53.08053 | 6.54674 | 1041 ft | 88 kts | 281° |
| 2026-05-08 09:20 | 53.08308 | 6.53768 | 963 ft | 85 kts | 308° |
| 2026-05-08 09:20 | 53.08706 | 6.53055 | 841 ft | 84 kts | 328° |
| 2026-05-08 09:20 | 53.09204 | 6.52669 | 769 ft | 72 kts | 6° |
| 2026-05-08 09:21 | 53.09607 | 6.52860 | 642 ft | 55 kts | 54° |
| 2026-05-08 09:21 | 53.09839 | 6.53318 | 538 ft | 47 kts | 65° |
| 2026-05-08 09:22 | 53.10891 | 6.55657 | 165 ft | 35 kts | 53° |
| 2026-05-08 09:23 | 53.11028 | 6.55936 | 121 ft | 29 kts | 53° |
| 2026-05-08 09:23 | 53.11150 | 6.56187 | 93 ft | 23 kts | 53° |
| 2026-05-08 09:23 | 53.11252 | 6.56401 | 58 ft | 23 kts | 53° |
| 2026-05-08 09:23 | 53.11342 | 6.56591 | 53 ft | 19 kts | 56° |
| 2026-05-08 09:24 | 53.11415 | 6.56746 | 40 ft | 14 kts | 56° |
| 2026-05-08 09:24 | 53.11471 | 6.56866 | 43 ft | 12 kts | 47° |
| 2026-05-08 09:24 | 53.11558 | 6.56843 | 37 ft | 17 kts | 320° |
| 2026-05-08 09:24 | 53.11648 | 6.56790 | 32 ft | 13 kts | 25° |
| 2026-05-08 09:25 | 53.11718 | 6.56897 | 34 ft | 16 kts | 52° |
| 2026-05-08 09:25 | 53.11782 | 6.57031 | 27 ft | 13 kts | 52° |
| 2026-05-08 09:25 | 53.11834 | 6.57142 | 27 ft | 12 kts | 54° |
| 2026-05-08 09:25 | 53.11887 | 6.57253 | 27 ft | 8 kts | 50° |
| 2026-05-08 09:26 | 53.11937 | 6.57357 | 24 ft | 11 kts | 51° |
| 2026-05-08 09:26 | 53.11974 | 6.57436 | 27 ft | 10 kts | 52° |
| 2026-05-08 09:26 | 53.12030 | 6.57556 | 27 ft | 12 kts | 51° |
| 2026-05-08 09:26 | 53.12074 | 6.57644 | 27 ft | 9 kts | 53° |
| 2026-05-08 09:27 | 53.12111 | 6.57727 | 29 ft | 10 kts | 53° |
| 2026-05-08 09:27 | 53.12187 | 6.57800 | 35 ft | 18 kts | 8° |
| 2026-05-08 09:27 | 53.12312 | 6.57825 | 42 ft | 19 kts | 14° |
| 2026-05-08 09:27 | 53.12447 | 6.57862 | 45 ft | 21 kts | 5° |
| 2026-05-08 09:28 | 53.12580 | 6.57895 | 36 ft | 20 kts | 10° |
| 2026-05-08 09:28 | 53.12707 | 6.57932 | 37 ft | 18 kts | 6° |
| 2026-05-08 09:28 | 53.12837 | 6.57963 | 37 ft | 19 kts | 5° |
| 2026-05-08 09:28 | 53.12948 | 6.57993 | 35 ft | 16 kts | 5° |
| 2026-05-08 09:29 | 53.13043 | 6.58021 | 33 ft | 12 kts | 50° |
| 2026-05-08 09:29 | 53.13049 | 6.58131 | 33 ft | 10 kts | 100° |
| 2026-05-08 09:29 | 53.13017 | 6.58233 | 36 ft | 10 kts | 110° |
| 2026-05-08 09:29 | 53.13023 | 6.58327 | 34 ft | 6 kts | 107° |
| 2026-05-08 09:30 | 53.13024 | 6.58360 | 33 ft | 2 kts | 128° |
| 2026-05-08 09:30 | 53.13023 | 6.58366 | 27 ft | 1 kts | 127° |
| 2026-05-08 09:30 | 53.13021 | 6.58367 | 21 ft | 0 kts | 128° |